sensor_id;sensor_type;location;lat;lon;timestamp;P1;durP1;ratioP1;P2;durP2;ratioP2
6282;SDS011;3174;53.486;9.568;2023-04-06T00:02:17;8.47;;;4.30;;
6282;SDS011;3174;53.486;9.568;2023-04-06T00:04:45;6.90;;;4.23;;
6282;SDS011;3174;53.486;9.568;2023-04-06T00:07:14;6.90;;;4.00;;
6282;SDS011;3174;53.486;9.568;2023-04-06T00:09:42;8.23;;;4.33;;
6282;SDS011;3174;53.486;9.568;2023-04-06T00:12:11;4.57;;;3.60;;
6282;SDS011;3174;53.486;9.568;2023-04-06T00:14:39;8.97;;;4.70;;
6282;SDS011;3174;53.486;9.568;2023-04-06T00:17:07;5.93;;;4.07;;
6282;SDS011;3174;53.486;9.568;2023-04-06T00:19:35;5.63;;;3.77;;
6282;SDS011;3174;53.486;9.568;2023-04-06T00:22:03;9.43;;;4.70;;
6282;SDS011;3174;53.486;9.568;2023-04-06T00:24:33;5.13;;;4.07;;
6282;SDS011;3174;53.486;9.568;2023-04-06T00:27:01;9.13;;;3.97;;
6282;SDS011;3174;53.486;9.568;2023-04-06T00:29:29;7.20;;;4.40;;
6282;SDS011;3174;53.486;9.568;2023-04-06T00:31:57;8.83;;;4.80;;
6282;SDS011;3174;53.486;9.568;2023-04-06T00:34:25;5.97;;;4.37;;
6282;SDS011;3174;53.486;9.568;2023-04-06T00:36:53;8.47;;;4.47;;
6282;SDS011;3174;53.486;9.568;2023-04-06T00:39:21;7.50;;;4.13;;
6282;SDS011;3174;53.486;9.568;2023-04-06T00:41:51;6.70;;;4.37;;
6282;SDS011;3174;53.486;9.568;2023-04-06T00:44:19;9.03;;;4.63;;
6282;SDS011;3174;53.486;9.568;2023-04-06T00:46:47;6.73;;;4.30;;
6282;SDS011;3174;53.486;9.568;2023-04-06T00:49:15;9.80;;;4.53;;
6282;SDS011;3174;53.486;9.568;2023-04-06T00:51:43;6.70;;;4.40;;
6282;SDS011;3174;53.486;9.568;2023-04-06T00:54:11;7.00;;;4.17;;
6282;SDS011;3174;53.486;9.568;2023-04-06T00:56:39;5.57;;;3.90;;
6282;SDS011;3174;53.486;9.568;2023-04-06T00:59:10;7.40;;;4.07;;
6282;SDS011;3174;53.486;9.568;2023-04-06T01:01:38;5.47;;;4.17;;
6282;SDS011;3174;53.486;9.568;2023-04-06T01:04:06;5.23;;;3.57;;
6282;SDS011;3174;53.486;9.568;2023-04-06T01:06:34;5.63;;;3.70;;
6282;SDS011;3174;53.486;9.568;2023-04-06T01:09:02;7.40;;;4.60;;
6282;SDS011;3174;53.486;9.568;2023-04-06T01:11:30;7.57;;;4.20;;
6282;SDS011;3174;53.486;9.568;2023-04-06T01:13:58;6.10;;;4.00;;
6282;SDS011;3174;53.486;9.568;2023-04-06T01:16:28;6.13;;;4.50;;
6282;SDS011;3174;53.486;9.568;2023-04-06T01:18:56;7.63;;;4.03;;
6282;SDS011;3174;53.486;9.568;2023-04-06T01:21:24;9.53;;;4.53;;
6282;SDS011;3174;53.486;9.568;2023-04-06T01:23:54;5.40;;;3.90;;
6282;SDS011;3174;53.486;9.568;2023-04-06T01:26:22;7.00;;;4.00;;
6282;SDS011;3174;53.486;9.568;2023-04-06T01:28:50;6.73;;;4.43;;
6282;SDS011;3174;53.486;9.568;2023-04-06T01:31:18;6.43;;;4.43;;
6282;SDS011;3174;53.486;9.568;2023-04-06T01:33:46;6.57;;;4.40;;
6282;SDS011;3174;53.486;9.568;2023-04-06T01:36:14;7.33;;;4.43;;
6282;SDS011;3174;53.486;9.568;2023-04-06T01:38:43;6.10;;;3.80;;
6282;SDS011;3174;53.486;9.568;2023-04-06T01:41:12;5.93;;;4.07;;
6282;SDS011;3174;53.486;9.568;2023-04-06T01:43:40;8.03;;;4.57;;
6282;SDS011;3174;53.486;9.568;2023-04-06T01:46:08;7.33;;;4.60;;
6282;SDS011;3174;53.486;9.568;2023-04-06T01:48:36;7.57;;;4.30;;
6282;SDS011;3174;53.486;9.568;2023-04-06T01:51:04;6.17;;;4.20;;
6282;SDS011;3174;53.486;9.568;2023-04-06T01:53:33;7.17;;;4.73;;
6282;SDS011;3174;53.486;9.568;2023-04-06T01:56:01;5.90;;;4.07;;
6282;SDS011;3174;53.486;9.568;2023-04-06T01:58:30;6.87;;;4.43;;
6282;SDS011;3174;53.486;9.568;2023-04-06T02:00:58;6.27;;;3.83;;
6282;SDS011;3174;53.486;9.568;2023-04-06T02:03:26;5.17;;;4.07;;
6282;SDS011;3174;53.486;9.568;2023-04-06T02:05:54;6.43;;;4.60;;
6282;SDS011;3174;53.486;9.568;2023-04-06T02:08:22;9.97;;;5.97;;
6282;SDS011;3174;53.486;9.568;2023-04-06T02:10:50;5.93;;;3.90;;
6282;SDS011;3174;53.486;9.568;2023-04-06T02:13:18;6.40;;;4.00;;
6282;SDS011;3174;53.486;9.568;2023-04-06T02:15:48;6.57;;;4.40;;
6282;SDS011;3174;53.486;9.568;2023-04-06T02:18:15;8.07;;;5.30;;
6282;SDS011;3174;53.486;9.568;2023-04-06T02:20:44;7.20;;;4.43;;
6282;SDS011;3174;53.486;9.568;2023-04-06T02:23:12;6.37;;;4.40;;
6282;SDS011;3174;53.486;9.568;2023-04-06T02:25:40;7.63;;;4.33;;
6282;SDS011;3174;53.486;9.568;2023-04-06T02:28:08;6.63;;;4.13;;
6282;SDS011;3174;53.486;9.568;2023-04-06T02:30:36;8.13;;;4.60;;
6282;SDS011;3174;53.486;9.568;2023-04-06T02:33:06;6.90;;;4.07;;
6282;SDS011;3174;53.486;9.568;2023-04-06T02:35:34;7.00;;;4.33;;
6282;SDS011;3174;53.486;9.568;2023-04-06T02:38:02;6.40;;;3.87;;
6282;SDS011;3174;53.486;9.568;2023-04-06T02:40:30;6.60;;;4.30;;
6282;SDS011;3174;53.486;9.568;2023-04-06T02:42:58;6.43;;;3.70;;
6282;SDS011;3174;53.486;9.568;2023-04-06T02:45:26;6.97;;;4.10;;
6282;SDS011;3174;53.486;9.568;2023-04-06T02:47:54;6.53;;;4.20;;
6282;SDS011;3174;53.486;9.568;2023-04-06T02:50:23;7.03;;;4.03;;
6282;SDS011;3174;53.486;9.568;2023-04-06T02:52:52;7.10;;;4.57;;
6282;SDS011;3174;53.486;9.568;2023-04-06T02:55:20;5.30;;;3.80;;
6282;SDS011;3174;53.486;9.568;2023-04-06T02:57:48;6.83;;;3.77;;
6282;SDS011;3174;53.486;9.568;2023-04-06T03:00:16;8.03;;;4.13;;
6282;SDS011;3174;53.486;9.568;2023-04-06T03:02:45;6.00;;;4.27;;
6282;SDS011;3174;53.486;9.568;2023-04-06T03:05:13;6.67;;;4.33;;
6282;SDS011;3174;53.486;9.568;2023-04-06T03:07:42;6.87;;;4.33;;
6282;SDS011;3174;53.486;9.568;2023-04-06T03:10:10;7.67;;;4.27;;
6282;SDS011;3174;53.486;9.568;2023-04-06T03:12:38;5.97;;;3.90;;
6282;SDS011;3174;53.486;9.568;2023-04-06T03:15:08;5.50;;;3.90;;
6282;SDS011;3174;53.486;9.568;2023-04-06T03:17:36;6.73;;;4.00;;
6282;SDS011;3174;53.486;9.568;2023-04-06T03:20:05;9.23;;;4.33;;
6282;SDS011;3174;53.486;9.568;2023-04-06T03:22:33;7.33;;;3.97;;
6282;SDS011;3174;53.486;9.568;2023-04-06T03:25:03;6.33;;;3.90;;
6282;SDS011;3174;53.486;9.568;2023-04-06T03:27:31;7.90;;;3.97;;
6282;SDS011;3174;53.486;9.568;2023-04-06T03:29:59;7.20;;;3.97;;
6282;SDS011;3174;53.486;9.568;2023-04-06T03:32:27;5.67;;;4.00;;
6282;SDS011;3174;53.486;9.568;2023-04-06T03:34:55;6.80;;;3.87;;
6282;SDS011;3174;53.486;9.568;2023-04-06T03:37:23;6.27;;;4.27;;
6282;SDS011;3174;53.486;9.568;2023-04-06T03:39:51;5.90;;;3.87;;
6282;SDS011;3174;53.486;9.568;2023-04-06T03:42:21;6.73;;;3.57;;
6282;SDS011;3174;53.486;9.568;2023-04-06T03:44:49;7.33;;;3.73;;
6282;SDS011;3174;53.486;9.568;2023-04-06T03:47:17;5.87;;;3.63;;
6282;SDS011;3174;53.486;9.568;2023-04-06T03:49:45;7.87;;;4.13;;
6282;SDS011;3174;53.486;9.568;2023-04-06T03:52:13;6.53;;;3.83;;
6282;SDS011;3174;53.486;9.568;2023-04-06T03:54:41;7.57;;;4.77;;
6282;SDS011;3174;53.486;9.568;2023-04-06T03:57:09;5.43;;;3.47;;
6282;SDS011;3174;53.486;9.568;2023-04-06T03:59:38;6.77;;;3.90;;
6282;SDS011;3174;53.486;9.568;2023-04-06T04:02:06;6.00;;;3.77;;
6282;SDS011;3174;53.486;9.568;2023-04-06T04:04:34;5.70;;;3.90;;
6282;SDS011;3174;53.486;9.568;2023-04-06T04:07:02;7.13;;;3.50;;
6282;SDS011;3174;53.486;9.568;2023-04-06T04:09:30;5.80;;;3.70;;
6282;SDS011;3174;53.486;9.568;2023-04-06T04:11:58;6.17;;;3.93;;
6282;SDS011;3174;53.486;9.568;2023-04-06T04:14:26;5.50;;;3.60;;
6282;SDS011;3174;53.486;9.568;2023-04-06T04:16:56;4.83;;;3.60;;
6282;SDS011;3174;53.486;9.568;2023-04-06T04:19:24;6.63;;;3.63;;
6282;SDS011;3174;53.486;9.568;2023-04-06T04:21:51;4.97;;;3.43;;
6282;SDS011;3174;53.486;9.568;2023-04-06T04:24:19;6.07;;;3.57;;
6282;SDS011;3174;53.486;9.568;2023-04-06T04:26:47;6.03;;;3.70;;
6282;SDS011;3174;53.486;9.568;2023-04-06T04:29:16;4.70;;;3.40;;
6282;SDS011;3174;53.486;9.568;2023-04-06T04:31:47;4.47;;;3.30;;
6282;SDS011;3174;53.486;9.568;2023-04-06T04:34:17;5.23;;;3.73;;
6282;SDS011;3174;53.486;9.568;2023-04-06T04:36:46;6.23;;;3.47;;
6282;SDS011;3174;53.486;9.568;2023-04-06T04:39:14;7.33;;;3.70;;
6282;SDS011;3174;53.486;9.568;2023-04-06T04:41:42;5.40;;;3.30;;
6282;SDS011;3174;53.486;9.568;2023-04-06T04:44:10;9.07;;;3.93;;
6282;SDS011;3174;53.486;9.568;2023-04-06T04:46:38;5.47;;;3.50;;
6282;SDS011;3174;53.486;9.568;2023-04-06T04:49:07;5.23;;;3.23;;
6282;SDS011;3174;53.486;9.568;2023-04-06T04:51:37;5.70;;;3.67;;
6282;SDS011;3174;53.486;9.568;2023-04-06T04:54:05;8.27;;;3.10;;
6282;SDS011;3174;53.486;9.568;2023-04-06T04:56:33;5.93;;;3.83;;
6282;SDS011;3174;53.486;9.568;2023-04-06T04:59:01;6.10;;;3.30;;
6282;SDS011;3174;53.486;9.568;2023-04-06T05:01:29;5.53;;;3.67;;
6282;SDS011;3174;53.486;9.568;2023-04-06T05:04:12;4.83;;;3.00;;
6282;SDS011;3174;53.486;9.568;2023-04-06T05:06:42;6.07;;;3.37;;
6282;SDS011;3174;53.486;9.568;2023-04-06T05:09:10;5.93;;;3.20;;
6282;SDS011;3174;53.486;9.568;2023-04-06T05:11:38;8.23;;;3.93;;
6282;SDS011;3174;53.486;9.568;2023-04-06T05:14:06;8.30;;;3.93;;
6282;SDS011;3174;53.486;9.568;2023-04-06T05:16:34;6.33;;;3.60;;
6282;SDS011;3174;53.486;9.568;2023-04-06T05:19:02;5.07;;;3.13;;
6282;SDS011;3174;53.486;9.568;2023-04-06T05:21:30;4.30;;;2.90;;
6282;SDS011;3174;53.486;9.568;2023-04-06T05:24:00;7.40;;;3.53;;
6282;SDS011;3174;53.486;9.568;2023-04-06T05:26:28;5.87;;;3.37;;
6282;SDS011;3174;53.486;9.568;2023-04-06T05:28:59;4.40;;;3.13;;
6282;SDS011;3174;53.486;9.568;2023-04-06T05:31:28;5.83;;;3.30;;
6282;SDS011;3174;53.486;9.568;2023-04-06T05:33:56;5.57;;;3.87;;
6282;SDS011;3174;53.486;9.568;2023-04-06T05:36:24;5.70;;;3.07;;
6282;SDS011;3174;53.486;9.568;2023-04-06T05:38:52;6.10;;;3.23;;
6282;SDS011;3174;53.486;9.568;2023-04-06T05:41:23;4.17;;;3.17;;
6282;SDS011;3174;53.486;9.568;2023-04-06T05:43:51;5.30;;;2.90;;
6282;SDS011;3174;53.486;9.568;2023-04-06T05:46:19;4.60;;;3.10;;
6282;SDS011;3174;53.486;9.568;2023-04-06T05:48:48;4.93;;;3.07;;
6282;SDS011;3174;53.486;9.568;2023-04-06T05:51:16;5.50;;;3.27;;
6282;SDS011;3174;53.486;9.568;2023-04-06T05:53:44;5.10;;;3.17;;
6282;SDS011;3174;53.486;9.568;2023-04-06T05:56:12;6.17;;;3.40;;
6282;SDS011;3174;53.486;9.568;2023-04-06T05:58:41;5.30;;;3.13;;
6282;SDS011;3174;53.486;9.568;2023-04-06T06:01:09;5.00;;;3.10;;
6282;SDS011;3174;53.486;9.568;2023-04-06T06:03:37;5.90;;;3.37;;
6282;SDS011;3174;53.486;9.568;2023-04-06T06:06:06;5.00;;;3.03;;
6282;SDS011;3174;53.486;9.568;2023-04-06T06:08:34;5.87;;;3.43;;
6282;SDS011;3174;53.486;9.568;2023-04-06T06:11:02;5.87;;;3.80;;
6282;SDS011;3174;53.486;9.568;2023-04-06T06:13:30;6.83;;;3.23;;
6282;SDS011;3174;53.486;9.568;2023-04-06T06:16:00;4.13;;;3.10;;
6282;SDS011;3174;53.486;9.568;2023-04-06T06:18:31;8.13;;;3.57;;
6282;SDS011;3174;53.486;9.568;2023-04-06T06:20:59;7.27;;;3.83;;
6282;SDS011;3174;53.486;9.568;2023-04-06T06:23:27;6.17;;;3.60;;
6282;SDS011;3174;53.486;9.568;2023-04-06T06:25:55;4.47;;;3.20;;
6282;SDS011;3174;53.486;9.568;2023-04-06T06:28:24;5.87;;;4.00;;
6282;SDS011;3174;53.486;9.568;2023-04-06T06:30:52;4.03;;;3.50;;
6282;SDS011;3174;53.486;9.568;2023-04-06T06:33:22;6.83;;;3.97;;
6282;SDS011;3174;53.486;9.568;2023-04-06T06:35:50;6.23;;;3.90;;
6282;SDS011;3174;53.486;9.568;2023-04-06T06:38:18;8.27;;;4.07;;
6282;SDS011;3174;53.486;9.568;2023-04-06T06:40:49;6.60;;;3.90;;
6282;SDS011;3174;53.486;9.568;2023-04-06T06:43:19;8.47;;;3.90;;
6282;SDS011;3174;53.486;9.568;2023-04-06T06:45:47;5.83;;;3.80;;
6282;SDS011;3174;53.486;9.568;2023-04-06T06:48:15;4.77;;;3.73;;
6282;SDS011;3174;53.486;9.568;2023-04-06T06:50:45;6.37;;;4.03;;
6282;SDS011;3174;53.486;9.568;2023-04-06T06:53:14;5.70;;;3.57;;
6282;SDS011;3174;53.486;9.568;2023-04-06T06:55:42;8.07;;;4.93;;
6282;SDS011;3174;53.486;9.568;2023-04-06T06:58:11;7.57;;;4.63;;
6282;SDS011;3174;53.486;9.568;2023-04-06T07:00:39;8.33;;;4.30;;
6282;SDS011;3174;53.486;9.568;2023-04-06T07:03:07;5.07;;;3.63;;
6282;SDS011;3174;53.486;9.568;2023-04-06T07:05:35;6.87;;;4.10;;
6282;SDS011;3174;53.486;9.568;2023-04-06T07:08:08;6.67;;;4.47;;
6282;SDS011;3174;53.486;9.568;2023-04-06T07:10:36;8.17;;;4.30;;
6282;SDS011;3174;53.486;9.568;2023-04-06T07:13:04;8.43;;;4.50;;
6282;SDS011;3174;53.486;9.568;2023-04-06T07:15:32;3.90;;;3.27;;
6282;SDS011;3174;53.486;9.568;2023-04-06T07:18:00;8.23;;;4.57;;
6282;SDS011;3174;53.486;9.568;2023-04-06T07:20:28;5.73;;;3.90;;
6282;SDS011;3174;53.486;9.568;2023-04-06T07:22:56;5.77;;;3.97;;
6282;SDS011;3174;53.486;9.568;2023-04-06T07:25:25;5.93;;;3.77;;
6282;SDS011;3174;53.486;9.568;2023-04-06T07:27:53;6.00;;;3.60;;
6282;SDS011;3174;53.486;9.568;2023-04-06T07:30:21;9.97;;;3.67;;
6282;SDS011;3174;53.486;9.568;2023-04-06T07:32:51;9.70;;;3.80;;
6282;SDS011;3174;53.486;9.568;2023-04-06T07:35:21;3.60;;;2.80;;
6282;SDS011;3174;53.486;9.568;2023-04-06T07:37:51;8.00;;;3.57;;
6282;SDS011;3174;53.486;9.568;2023-04-06T07:40:19;4.57;;;3.40;;
6282;SDS011;3174;53.486;9.568;2023-04-06T07:42:48;3.70;;;2.80;;
6282;SDS011;3174;53.486;9.568;2023-04-06T07:45:16;5.97;;;3.93;;
6282;SDS011;3174;53.486;9.568;2023-04-06T07:47:44;7.77;;;4.33;;
6282;SDS011;3174;53.486;9.568;2023-04-06T07:50:13;5.77;;;3.50;;
6282;SDS011;3174;53.486;9.568;2023-04-06T07:52:41;6.47;;;3.87;;
6282;SDS011;3174;53.486;9.568;2023-04-06T07:55:09;3.93;;;3.23;;
6282;SDS011;3174;53.486;9.568;2023-04-06T07:57:37;7.37;;;4.23;;
6282;SDS011;3174;53.486;9.568;2023-04-06T08:00:07;8.40;;;4.13;;
6282;SDS011;3174;53.486;9.568;2023-04-06T08:02:36;4.73;;;3.80;;
6282;SDS011;3174;53.486;9.568;2023-04-06T08:05:05;4.17;;;3.30;;
6282;SDS011;3174;53.486;9.568;2023-04-06T08:07:33;5.83;;;3.60;;
6282;SDS011;3174;53.486;9.568;2023-04-06T08:10:01;7.63;;;3.80;;
6282;SDS011;3174;53.486;9.568;2023-04-06T08:12:30;5.67;;;3.27;;
6282;SDS011;3174;53.486;9.568;2023-04-06T08:14:59;4.80;;;2.97;;
6282;SDS011;3174;53.486;9.568;2023-04-06T08:17:30;10.20;;;3.57;;
6282;SDS011;3174;53.486;9.568;2023-04-06T08:20:00;6.83;;;3.50;;
6282;SDS011;3174;53.486;9.568;2023-04-06T08:22:29;7.70;;;3.43;;
6282;SDS011;3174;53.486;9.568;2023-04-06T08:24:57;7.23;;;4.10;;
6282;SDS011;3174;53.486;9.568;2023-04-06T08:27:26;4.47;;;2.90;;
6282;SDS011;3174;53.486;9.568;2023-04-06T08:29:54;5.83;;;3.50;;
6282;SDS011;3174;53.486;9.568;2023-04-06T08:32:22;7.83;;;3.43;;
6282;SDS011;3174;53.486;9.568;2023-04-06T08:34:52;6.40;;;3.87;;
6282;SDS011;3174;53.486;9.568;2023-04-06T08:37:21;6.97;;;3.40;;
6282;SDS011;3174;53.486;9.568;2023-04-06T08:39:49;8.23;;;3.70;;
6282;SDS011;3174;53.486;9.568;2023-04-06T08:42:19;5.43;;;3.67;;
6282;SDS011;3174;53.486;9.568;2023-04-06T08:44:48;6.73;;;3.53;;
6282;SDS011;3174;53.486;9.568;2023-04-06T08:47:18;6.10;;;3.57;;
6282;SDS011;3174;53.486;9.568;2023-04-06T08:49:51;6.50;;;3.67;;
6282;SDS011;3174;53.486;9.568;2023-04-06T08:52:20;5.37;;;2.90;;
6282;SDS011;3174;53.486;9.568;2023-04-06T08:54:48;5.57;;;3.47;;
6282;SDS011;3174;53.486;9.568;2023-04-06T08:57:16;6.50;;;3.13;;
6282;SDS011;3174;53.486;9.568;2023-04-06T08:59:45;5.83;;;3.03;;
6282;SDS011;3174;53.486;9.568;2023-04-06T09:02:15;5.67;;;3.50;;
6282;SDS011;3174;53.486;9.568;2023-04-06T09:04:45;6.63;;;3.97;;
6282;SDS011;3174;53.486;9.568;2023-04-06T09:07:15;6.53;;;3.40;;
6282;SDS011;3174;53.486;9.568;2023-04-06T09:09:43;6.20;;;3.87;;
6282;SDS011;3174;53.486;9.568;2023-04-06T09:12:24;7.03;;;3.90;;
6282;SDS011;3174;53.486;9.568;2023-04-06T09:14:53;4.27;;;2.93;;
6282;SDS011;3174;53.486;9.568;2023-04-06T09:17:22;6.00;;;3.40;;
6282;SDS011;3174;53.486;9.568;2023-04-06T09:19:50;6.53;;;3.40;;
6282;SDS011;3174;53.486;9.568;2023-04-06T09:22:20;8.47;;;3.90;;
6282;SDS011;3174;53.486;9.568;2023-04-06T09:24:49;4.57;;;3.27;;
6282;SDS011;3174;53.486;9.568;2023-04-06T09:27:18;5.63;;;2.70;;
6282;SDS011;3174;53.486;9.568;2023-04-06T09:30:02;6.50;;;3.67;;
6282;SDS011;3174;53.486;9.568;2023-04-06T09:32:31;4.70;;;2.90;;
6282;SDS011;3174;53.486;9.568;2023-04-06T09:35:05;5.73;;;3.07;;
6282;SDS011;3174;53.486;9.568;2023-04-06T09:37:35;5.97;;;2.40;;
6282;SDS011;3174;53.486;9.568;2023-04-06T09:40:04;4.80;;;2.80;;
6282;SDS011;3174;53.486;9.568;2023-04-06T09:42:33;6.67;;;2.77;;
6282;SDS011;3174;53.486;9.568;2023-04-06T09:45:02;6.77;;;2.00;;
6282;SDS011;3174;53.486;9.568;2023-04-06T09:47:30;3.17;;;2.30;;
6282;SDS011;3174;53.486;9.568;2023-04-06T09:49:59;3.13;;;2.03;;
6282;SDS011;3174;53.486;9.568;2023-04-06T09:52:30;4.27;;;2.43;;
6282;SDS011;3174;53.486;9.568;2023-04-06T09:55:02;2.73;;;1.93;;
6282;SDS011;3174;53.486;9.568;2023-04-06T09:57:32;4.10;;;2.30;;
6282;SDS011;3174;53.486;9.568;2023-04-06T10:00:05;6.90;;;2.97;;
6282;SDS011;3174;53.486;9.568;2023-04-06T10:02:39;4.67;;;2.60;;
6282;SDS011;3174;53.486;9.568;2023-04-06T10:05:13;3.07;;;2.33;;
6282;SDS011;3174;53.486;9.568;2023-04-06T10:07:46;4.20;;;2.80;;
6282;SDS011;3174;53.486;9.568;2023-04-06T10:10:23;5.07;;;3.27;;
6282;SDS011;3174;53.486;9.568;2023-04-06T10:12:52;3.43;;;2.30;;
6282;SDS011;3174;53.486;9.568;2023-04-06T10:15:21;5.70;;;2.90;;
6282;SDS011;3174;53.486;9.568;2023-04-06T10:17:50;3.77;;;2.37;;
6282;SDS011;3174;53.486;9.568;2023-04-06T10:20:21;5.03;;;2.90;;
6282;SDS011;3174;53.486;9.568;2023-04-06T10:22:51;5.53;;;2.70;;
6282;SDS011;3174;53.486;9.568;2023-04-06T10:25:28;6.37;;;3.40;;
6282;SDS011;3174;53.486;9.568;2023-04-06T10:27:59;6.10;;;3.10;;
6282;SDS011;3174;53.486;9.568;2023-04-06T10:30:28;5.33;;;3.10;;
6282;SDS011;3174;53.486;9.568;2023-04-06T10:32:56;4.73;;;3.13;;
6282;SDS011;3174;53.486;9.568;2023-04-06T10:35:24;4.30;;;2.90;;
6282;SDS011;3174;53.486;9.568;2023-04-06T10:38:04;7.43;;;3.47;;
6282;SDS011;3174;53.486;9.568;2023-04-06T10:40:35;4.30;;;3.40;;
6282;SDS011;3174;53.486;9.568;2023-04-06T10:43:07;5.70;;;3.37;;
6282;SDS011;3174;53.486;9.568;2023-04-06T10:45:36;5.57;;;2.90;;
6282;SDS011;3174;53.486;9.568;2023-04-06T10:48:13;6.37;;;3.17;;
6282;SDS011;3174;53.486;9.568;2023-04-06T10:50:43;6.50;;;3.67;;
6282;SDS011;3174;53.486;9.568;2023-04-06T10:53:19;6.60;;;3.33;;
6282;SDS011;3174;53.486;9.568;2023-04-06T10:55:50;5.93;;;3.60;;
6282;SDS011;3174;53.486;9.568;2023-04-06T10:58:19;4.40;;;3.07;;
6282;SDS011;3174;53.486;9.568;2023-04-06T11:00:48;6.93;;;3.13;;
6282;SDS011;3174;53.486;9.568;2023-04-06T11:03:17;7.17;;;4.10;;
6282;SDS011;3174;53.486;9.568;2023-04-06T11:05:45;9.83;;;4.67;;
6282;SDS011;3174;53.486;9.568;2023-04-06T11:08:27;9.23;;;5.20;;
6282;SDS011;3174;53.486;9.568;2023-04-06T11:11:08;6.57;;;4.20;;
6282;SDS011;3174;53.486;9.568;2023-04-06T11:13:42;9.40;;;5.07;;
6282;SDS011;3174;53.486;9.568;2023-04-06T11:16:12;8.57;;;4.70;;
6282;SDS011;3174;53.486;9.568;2023-04-06T11:18:50;6.87;;;3.87;;
6282;SDS011;3174;53.486;9.568;2023-04-06T11:21:33;7.17;;;4.17;;
6282;SDS011;3174;53.486;9.568;2023-04-06T11:24:05;7.50;;;4.33;;
6282;SDS011;3174;53.486;9.568;2023-04-06T11:26:39;7.90;;;4.90;;
6282;SDS011;3174;53.486;9.568;2023-04-06T11:29:08;6.63;;;4.33;;
6282;SDS011;3174;53.486;9.568;2023-04-06T11:31:39;8.63;;;4.97;;
6282;SDS011;3174;53.486;9.568;2023-04-06T11:34:11;8.63;;;4.87;;
6282;SDS011;3174;53.486;9.568;2023-04-06T11:36:41;6.83;;;4.47;;
6282;SDS011;3174;53.486;9.568;2023-04-06T11:39:09;9.97;;;5.30;;
6282;SDS011;3174;53.486;9.568;2023-04-06T11:41:39;7.37;;;5.40;;
6282;SDS011;3174;53.486;9.568;2023-04-06T11:44:08;8.30;;;5.70;;
6282;SDS011;3174;53.486;9.568;2023-04-06T11:46:36;8.90;;;5.00;;
6282;SDS011;3174;53.486;9.568;2023-04-06T11:49:05;7.63;;;4.93;;
6282;SDS011;3174;53.486;9.568;2023-04-06T11:51:35;7.00;;;4.87;;
6282;SDS011;3174;53.486;9.568;2023-04-06T11:54:04;10.33;;;4.90;;
6282;SDS011;3174;53.486;9.568;2023-04-06T11:56:32;9.90;;;4.57;;
6282;SDS011;3174;53.486;9.568;2023-04-06T11:59:02;5.77;;;4.67;;
6282;SDS011;3174;53.486;9.568;2023-04-06T12:01:30;7.20;;;4.83;;
6282;SDS011;3174;53.486;9.568;2023-04-06T12:04:04;7.53;;;4.73;;
6282;SDS011;3174;53.486;9.568;2023-04-06T12:06:32;8.30;;;5.20;;
6282;SDS011;3174;53.486;9.568;2023-04-06T12:09:01;11.70;;;5.20;;
6282;SDS011;3174;53.486;9.568;2023-04-06T12:11:29;6.67;;;4.43;;
6282;SDS011;3174;53.486;9.568;2023-04-06T12:13:57;7.60;;;4.80;;
6282;SDS011;3174;53.486;9.568;2023-04-06T12:16:29;8.37;;;5.27;;
6282;SDS011;3174;53.486;9.568;2023-04-06T12:18:57;5.47;;;3.67;;
6282;SDS011;3174;53.486;9.568;2023-04-06T12:21:26;7.23;;;4.87;;
6282;SDS011;3174;53.486;9.568;2023-04-06T12:23:54;8.90;;;4.70;;
6282;SDS011;3174;53.486;9.568;2023-04-06T12:26:22;8.60;;;4.87;;
6282;SDS011;3174;53.486;9.568;2023-04-06T12:28:50;9.60;;;4.73;;
6282;SDS011;3174;53.486;9.568;2023-04-06T12:31:18;7.60;;;4.60;;
6282;SDS011;3174;53.486;9.568;2023-04-06T12:33:50;6.80;;;4.60;;
6282;SDS011;3174;53.486;9.568;2023-04-06T12:36:19;9.87;;;5.43;;
6282;SDS011;3174;53.486;9.568;2023-04-06T12:38:47;6.63;;;4.40;;
6282;SDS011;3174;53.486;9.568;2023-04-06T12:41:17;8.20;;;5.43;;
6282;SDS011;3174;53.486;9.568;2023-04-06T12:43:45;8.40;;;5.27;;
6282;SDS011;3174;53.486;9.568;2023-04-06T12:46:13;7.40;;;4.60;;
6282;SDS011;3174;53.486;9.568;2023-04-06T12:48:41;7.43;;;5.07;;
6282;SDS011;3174;53.486;9.568;2023-04-06T12:51:10;7.57;;;4.93;;
6282;SDS011;3174;53.486;9.568;2023-04-06T12:53:38;9.10;;;5.37;;
6282;SDS011;3174;53.486;9.568;2023-04-06T12:56:10;12.33;;;5.73;;
6282;SDS011;3174;53.486;9.568;2023-04-06T12:58:39;10.10;;;5.53;;
6282;SDS011;3174;53.486;9.568;2023-04-06T13:01:08;7.63;;;3.77;;
6282;SDS011;3174;53.486;9.568;2023-04-06T13:03:38;5.70;;;4.27;;
6282;SDS011;3174;53.486;9.568;2023-04-06T13:06:06;9.03;;;5.43;;
6282;SDS011;3174;53.486;9.568;2023-04-06T13:08:36;9.73;;;5.40;;
6282;SDS011;3174;53.486;9.568;2023-04-06T13:11:05;8.37;;;4.93;;
6282;SDS011;3174;53.486;9.568;2023-04-06T13:13:35;9.27;;;5.67;;
6282;SDS011;3174;53.486;9.568;2023-04-06T13:16:04;8.83;;;4.10;;
6282;SDS011;3174;53.486;9.568;2023-04-06T13:18:34;8.20;;;5.30;;
6282;SDS011;3174;53.486;9.568;2023-04-06T13:21:03;9.37;;;5.10;;
6282;SDS011;3174;53.486;9.568;2023-04-06T13:23:32;8.73;;;4.67;;
6282;SDS011;3174;53.486;9.568;2023-04-06T13:26:01;6.60;;;4.60;;
6282;SDS011;3174;53.486;9.568;2023-04-06T13:28:30;6.50;;;3.80;;
6282;SDS011;3174;53.486;9.568;2023-04-06T13:30:59;6.40;;;3.97;;
6282;SDS011;3174;53.486;9.568;2023-04-06T13:33:28;6.73;;;4.70;;
6282;SDS011;3174;53.486;9.568;2023-04-06T13:35:57;6.13;;;4.83;;
6282;SDS011;3174;53.486;9.568;2023-04-06T13:38:25;8.97;;;4.10;;
6282;SDS011;3174;53.486;9.568;2023-04-06T13:40:53;5.33;;;3.13;;
6282;SDS011;3174;53.486;9.568;2023-04-06T13:43:23;6.43;;;4.10;;
6282;SDS011;3174;53.486;9.568;2023-04-06T13:45:53;5.87;;;4.43;;
6282;SDS011;3174;53.486;9.568;2023-04-06T13:48:24;7.03;;;4.43;;
6282;SDS011;3174;53.486;9.568;2023-04-06T13:50:52;6.13;;;3.90;;
6282;SDS011;3174;53.486;9.568;2023-04-06T13:53:21;7.87;;;4.37;;
6282;SDS011;3174;53.486;9.568;2023-04-06T13:55:52;7.13;;;4.30;;
6282;SDS011;3174;53.486;9.568;2023-04-06T13:58:20;6.23;;;4.40;;
6282;SDS011;3174;53.486;9.568;2023-04-06T14:00:50;6.90;;;4.30;;
6282;SDS011;3174;53.486;9.568;2023-04-06T14:03:19;7.53;;;5.27;;
6282;SDS011;3174;53.486;9.568;2023-04-06T14:05:47;5.23;;;3.67;;
6282;SDS011;3174;53.486;9.568;2023-04-06T14:08:15;7.40;;;4.50;;
6282;SDS011;3174;53.486;9.568;2023-04-06T14:10:43;4.97;;;3.80;;
6282;SDS011;3174;53.486;9.568;2023-04-06T14:13:11;10.50;;;5.10;;
6282;SDS011;3174;53.486;9.568;2023-04-06T14:15:39;7.23;;;4.57;;
6282;SDS011;3174;53.486;9.568;2023-04-06T14:18:08;6.30;;;4.53;;
6282;SDS011;3174;53.486;9.568;2023-04-06T14:20:36;9.63;;;5.13;;
6282;SDS011;3174;53.486;9.568;2023-04-06T14:23:04;8.27;;;5.07;;
6282;SDS011;3174;53.486;9.568;2023-04-06T14:25:32;6.70;;;4.87;;
6282;SDS011;3174;53.486;9.568;2023-04-06T14:28:01;10.10;;;5.07;;
6282;SDS011;3174;53.486;9.568;2023-04-06T14:30:29;6.33;;;4.90;;
6282;SDS011;3174;53.486;9.568;2023-04-06T14:32:57;6.67;;;4.87;;
6282;SDS011;3174;53.486;9.568;2023-04-06T14:35:27;7.60;;;5.03;;
6282;SDS011;3174;53.486;9.568;2023-04-06T14:37:56;5.73;;;4.53;;
6282;SDS011;3174;53.486;9.568;2023-04-06T14:40:25;4.43;;;3.27;;
6282;SDS011;3174;53.486;9.568;2023-04-06T14:42:53;6.20;;;4.50;;
6282;SDS011;3174;53.486;9.568;2023-04-06T14:45:22;5.73;;;4.20;;
6282;SDS011;3174;53.486;9.568;2023-04-06T14:47:50;6.83;;;4.60;;
6282;SDS011;3174;53.486;9.568;2023-04-06T14:50:18;6.17;;;4.53;;
6282;SDS011;3174;53.486;9.568;2023-04-06T14:52:48;6.77;;;4.37;;
6282;SDS011;3174;53.486;9.568;2023-04-06T14:55:16;7.97;;;5.03;;
6282;SDS011;3174;53.486;9.568;2023-04-06T14:57:44;5.60;;;4.30;;
6282;SDS011;3174;53.486;9.568;2023-04-06T15:00:12;6.63;;;4.60;;
6282;SDS011;3174;53.486;9.568;2023-04-06T15:02:41;5.30;;;4.07;;
6282;SDS011;3174;53.486;9.568;2023-04-06T15:05:10;6.80;;;3.67;;
6282;SDS011;3174;53.486;9.568;2023-04-06T15:07:38;5.97;;;4.53;;
6282;SDS011;3174;53.486;9.568;2023-04-06T15:10:08;4.60;;;3.60;;
6282;SDS011;3174;53.486;9.568;2023-04-06T15:12:37;6.33;;;3.00;;
6282;SDS011;3174;53.486;9.568;2023-04-06T15:15:06;5.43;;;3.90;;
6282;SDS011;3174;53.486;9.568;2023-04-06T15:17:34;5.93;;;4.20;;
6282;SDS011;3174;53.486;9.568;2023-04-06T15:20:03;6.03;;;4.00;;
6282;SDS011;3174;53.486;9.568;2023-04-06T15:22:32;5.60;;;4.37;;
6282;SDS011;3174;53.486;9.568;2023-04-06T15:25:00;7.00;;;4.40;;
6282;SDS011;3174;53.486;9.568;2023-04-06T15:27:29;5.10;;;4.17;;